首页
METAR-TAF:

METAR-TAF

机场 :

洛里昂, 法国

纬度: 47-46N, 经度: 003-27W, 海拔: 52米

当前天气观测

该预报发布于40分钟前的20:00 UTC
风速3节,风向西
温度 4°C
湿度 87%
气压 1007 hPa
能见度10公里或以上
1500米以下无云,无积雨云

METAR: LFRH 122000Z AUTO 28003KT CAVOK 04/02 Q1007 NOSIG

时间: 21:40 (20:40 UTC)

预报

该预报发布于3小时和40分钟前的17:00 UTC
预报有效从12日的 18点(UTC)到 13日的 18点(UTC)
风速3节,风向西转西北
能见度10公里或以上
1500米以下无云,无积雨云
成为
从 13日的 10点(UTC)到 13日的 12点(UTC)
风速16节,风向西转西南
成为
从 13日的 14点(UTC)到 13日的 16点(UTC)
风速25节,风向西,有时为37节阵风
能見度: 3500
多云层高于500英尺
多云层高于1000英尺, 积雨云.
多云层高于1500英尺, 塔状积云.
大雨
几率 30% :
短暂存在
从 13日的 16点(UTC)到 13日的 18点(UTC)
能見度: 1500
阵雨, 小冰雹或雪球
几率 30% :
短暂存在
从 13日的 16点(UTC)到 13日的 18点(UTC)
雷暴, 雨

TAF: LFRH 121700Z 1218/1318 30003KT CAVOK BECMG 1310/1312 24016KT BECMG 1314/1316 27025G37KT 3500 +RA BKN005 BKN010CB BKN015TCU PROB30 TEMPO 1316/1318 1500 SHRAGS PROB30 TEMPO 1316/1318 TSRA

超过4000个机场的气象观测和天气预报(METAR&TAF报告)。

可查询的气象台以黄色和红色小点在地图上表示。

将鼠标移到小点上方,可查看气象台名称。

然后点击查看天气观测和预报。

如需切换地图:点击带黑十字的绿色按钮放大地图;点击带横线的绿色按钮缩小地图;或者点击绿色箭头查看邻近地区的地图。


METAR-TAF: